Time;durP1;ratioP1;P1;durP2;ratioP2;P2;SDS_P1;SDS_P2;PMS_P1;PMS_P2;Temp;Humidity;BMP_temperature;BMP_pressure;BME280_temperature;BME280_humidity;BME280_pressure;Samples;Min_cycle;Max_cycle;Signal;HPM_P1;HPM_P2
2022/06/03 00:00:19;;;;;;;8.23;2.50;;;;;;;24.99;43.54;98801.47;4934076;29;20040;-80
2022/06/03 00:02:44;;;;;;;3.75;2.13;;;;;;;24.99;43.78;98806.81;4933883;29;20061;-81
2022/06/03 00:05:31;;;;;;;5.03;2.60;;;;;;;24.95;43.89;98797.56;4917901;29;20098;-80
2022/06/03 00:08:33;;;;;;;3.75;2.38;;;;;;;24.97;43.71;98799.00;4918012;29;20027;-81
2022/06/03 00:11:16;;;;;;;4.88;2.78;;;;;;;24.96;43.82;98797.34;4902054;29;20023;-82
2022/06/03 00:14:13;;;;;;;5.18;2.45;;;;;;;24.91;43.77;98791.81;4933641;29;20040;-81
2022/06/03 00:16:57;;;;;;;5.15;2.80;;;;;;;24.92;43.67;98788.09;4919667;29;20040;-80
2022/06/03 00:20:00;;;;;;;6.00;2.72;;;;;;;24.92;43.79;98788.94;4933684;29;20099;-81
2022/06/03 00:22:50;;;;;;;5.70;2.45;;;;;;;24.91;44.04;98789.97;4933655;29;20526;-80
2022/06/03 00:25:42;;;;;;;4.88;2.78;;;;;;;24.91;44.19;98797.16;4933903;29;20498;-81
2022/06/03 00:28:21;;;;;;;4.88;2.78;;;;;;;24.88;44.31;98786.91;4933134;29;20150;-81
2022/06/03 00:30:55;;;;;;;6.82;2.67;;;;;;;24.90;44.40;98793.66;4923373;28;20050;-81
2022/06/03 00:33:36;;;;;;;4.40;2.47;;;;;;;24.90;44.88;98795.50;5011919;28;20034;-81
2022/06/03 00:36:41;;;;;;;8.10;2.85;;;;;;;24.86;45.03;98794.28;5013296;28;20026;-81
2022/06/03 00:39:12;;;;;;;4.75;2.80;;;;;;;24.88;44.90;98794.91;4994136;28;20038;-81
2022/06/03 00:42:16;;;;;;;6.40;2.78;;;;;;;24.86;44.95;98788.94;5012304;28;20030;-81
2022/06/03 00:44:53;;;;;;;6.03;2.80;;;;;;;24.84;44.98;98785.66;4988952;28;20052;-81
2022/06/03 00:47:49;;;;;;;8.02;2.67;;;;;;;24.83;45.01;98794.72;5012837;28;20115;-80
2022/06/03 00:50:39;;;;;;;6.75;2.65;;;;;;;24.79;45.50;98782.81;5012856;28;20481;-81
2022/06/03 00:53:25;;;;;;;4.72;2.83;;;;;;;24.78;45.42;98783.81;5012522;28;20022;-80
2022/06/03 00:56:00;;;;;;;7.28;3.03;;;;;;;24.73;45.60;98779.09;5012898;28;20152;-81
2022/06/03 00:58:38;;;;;;;10.35;2.70;;;;;;;24.66;45.82;98767.63;5011850;28;20030;-81
2022/06/03 01:01:06;;;;;;;4.18;2.45;;;;;;;24.62;45.63;98767.25;4995927;28;20095;-81
2022/06/03 01:03:38;;;;;;;;;;;;;;;24.60;46.05;98776.47;5011606;28;20033;-81
2022/06/03 01:06:18;;;;;;;4.63;2.80;;;;;;;24.55;46.05;98774.41;5013062;28;20372;-81
2022/06/03 01:08:57;;;;;;;5.43;2.88;;;;;;;24.52;46.16;98785.47;5012687;28;20496;-81
2022/06/03 01:11:48;;;;;;;8.70;2.85;;;;;;;24.50;45.86;98784.88;5011296;28;20064;-81
2022/06/03 01:14:26;;;;;;;5.15;2.80;;;;;;;24.51;46.19;98778.50;5012618;28;20029;-80
2022/06/03 01:17:16;;;;;;;6.07;2.72;;;;;;;24.58;46.06;98794.53;5011237;28;20088;-81
2022/06/03 01:20:13;;;;;;;8.57;2.85;;;;;;;24.55;45.99;98780.53;4994370;28;20108;-81
2022/06/03 01:22:39;;;;;;;5.00;2.90;;;;;;;24.53;46.19;98779.94;4932679;29;20475;-81
2022/06/03 01:25:10;;;;;;;6.45;3.10;;;;;;;24.52;46.47;98778.28;4932932;29;20046;-80
2022/06/03 01:27:54;;;;;;;9.32;3.03;;;;;;;24.54;46.32;98772.75;4916942;29;20196;-81
2022/06/03 01:30:42;;;;;;;6.93;2.80;;;;;;;24.54;46.25;98773.59;4932743;29;20488;-80
2022/06/03 01:33:12;;;;;;;10.63;3.33;;;;;;;24.55;46.28;98782.41;4916828;29;20079;-81
2022/06/03 01:35:58;;;;;;;7.13;3.20;;;;;;;24.53;46.47;98779.13;4916743;29;20028;-80
2022/06/03 01:38:46;;;;;;;7.40;3.28;;;;;;;24.44;47.01;98781.16;4932803;29;20090;-81
2022/06/03 01:41:29;;;;;;;6.38;2.88;;;;;;;24.45;46.94;98795.31;4917664;29;20126;-81
2022/06/03 01:44:18;;;;;;;4.85;2.88;;;;;;;24.40;47.15;98787.97;4916471;29;20184;-80
2022/06/03 01:47:20;;;;;;;5.72;3.10;;;;;;;24.35;47.18;98788.56;4857752;29;20053;-81
2022/06/03 01:50:10;;;;;;;5.15;3.00;;;;;;;24.31;47.25;98795.31;4857898;29;20045;-81
2022/06/03 01:53:12;;;;;;;7.00;3.33;;;;;;;24.28;47.29;98801.06;4842243;29;20037;-80
2022/06/03 01:56:11;;;;;;;4.75;3.30;;;;;;;24.29;47.68;98807.22;4861407;29;20041;-80
2022/06/03 01:58:52;;;;;;;8.57;3.38;;;;;;;24.29;47.62;98808.06;4876482;29;20043;-81
2022/06/03 02:01:23;;;;;;;4.82;3.00;;;;;;;24.28;47.77;98803.75;4955225;28;20086;-81
2022/06/03 02:04:13;;;;;;;7.95;3.40;;;;;;;24.26;47.88;98802.28;4955212;28;20039;-81
2022/06/03 02:06:51;;;;;;;6.53;3.47;;;;;;;24.28;47.78;98805.59;4939315;29;20561;-81
2022/06/03 02:09:35;;;;;;;6.95;3.47;;;;;;;24.30;47.94;98801.69;4955215;29;20086;-81
2022/06/03 02:12:16;;;;;;;5.47;3.08;;;;;;;24.29;48.08;98802.72;4939147;29;20463;-80
2022/06/03 02:15:06;;;;;;;15.93;4.00;;;;;;;24.27;48.01;98807.41;4954992;29;20050;-81
2022/06/03 02:17:41;;;;;;;9.23;3.65;;;;;;;24.24;47.93;98804.34;4941288;29;20130;-81
2022/06/03 02:20:24;;;;;;;5.80;3.10;;;;;;;24.22;48.30;98809.88;4939052;29;20146;-81
2022/06/03 02:23:13;;;;;;;6.63;3.30;;;;;;;24.22;48.23;98820.56;4961835;28;20134;-81
2022/06/03 02:26:03;;;;;;;6.90;4.00;;;;;;;24.18;48.53;98822.00;4997665;28;20497;-81
2022/06/03 02:28:50;;;;;;;6.63;3.83;;;;;;;24.14;48.76;98821.56;5014373;28;20108;-80
2022/06/03 02:31:34;;;;;;;6.20;3.87;;;;;;;24.10;48.61;98814.16;5013912;28;20038;-81
2022/06/03 02:34:15;;;;;;;8.95;3.83;;;;;;;24.08;49.01;98817.03;4996399;28;20025;-81
2022/06/03 02:36:55;;;;;;;4.80;3.35;;;;;;;24.06;48.91;98818.28;5012933;28;20026;-80
2022/06/03 02:39:23;;;;;;;5.25;3.30;;;;;;;24.02;49.16;98823.19;5013946;28;20038;-80
2022/06/03 02:41:49;;;;;;;;;;;;;;;24.00;49.15;98828.75;5014228;28;20037;-81
2022/06/03 02:44:35;;;;;;;7.05;3.70;;;;;;;23.99;49.32;98829.75;5013394;28;20007;-80
2022/06/03 02:47:31;;;;;;;9.45;3.55;;;;;;;23.99;49.23;98832.41;5013791;28;20409;-80
2022/06/03 02:50:44;;;;;;;7.63;3.55;;;;;;;24.03;49.32;98830.97;5013951;28;20022;-80
2022/06/03 02:53:18;;;;;;;4.50;3.25;;;;;;;24.09;48.93;98840.03;4975664;28;20041;-80
2022/06/03 02:56:10;;;;;;;6.35;3.47;;;;;;;24.15;48.74;98833.88;5012803;28;20476;-80
2022/06/03 02:59:00;;;;;;;6.88;3.63;;;;;;;24.30;48.63;98836.34;5012984;28;20029;-80
2022/06/03 03:01:50;;;;;;;5.00;3.50;;;;;;;24.57;47.88;98844.41;5013583;28;20034;-81
2022/06/03 03:04:48;;;;;;;8.60;3.58;;;;;;;24.88;47.07;98837.63;5013496;28;20029;-81
2022/06/03 03:07:16;;;;;;;5.45;3.45;;;;;;;25.16;46.60;98839.22;4934020;29;20102;-81
2022/06/03 03:09:42;;;;;;;7.15;3.78;;;;;;;25.42;45.94;98836.50;4918287;29;20439;-81
2022/06/03 03:12:39;;;;;;;7.07;3.85;;;;;;;25.78;45.63;98847.66;4933657;29;20044;-80
2022/06/03 03:15:29;;;;;;;9.95;3.30;;;;;;;26.16;44.38;98845.00;4917842;29;20075;-80
2022/06/03 03:17:57;;;;;;;6.90;3.58;;;;;;;26.51;43.59;98851.75;4934225;29;20036;-81
2022/06/03 03:20:22;;;;;;;;;;;;;;;26.89;42.91;98853.53;4934168;29;20399;-81
2022/06/03 03:22:58;;;;;;;6.78;3.20;;;;;;;27.24;41.62;98856.47;4933448;29;19911;-81
2022/06/03 03:25:51;;;;;;;8.68;3.58;;;;;;;27.60;41.03;98860.22;4918115;29;20108;-81
2022/06/03 03:28:17;;;;;;;7.07;3.50;;;;;;;28.00;39.88;98868.81;4793402;29;1405040;-81
2022/06/03 03:30:48;;;;;;;8.55;3.35;;;;;;;28.45;38.67;98871.03;4841026;29;20045;-80
2022/06/03 03:34:01;;;;;;;6.55;3.25;;;;;;;28.84;38.35;98877.69;4840946;29;20050;-81
2022/06/03 03:36:54;;;;;;;9.63;3.47;;;;;;;29.36;37.29;98879.66;4804934;29;20051;-81
2022/06/03 03:39:47;;;;;;;15.43;3.92;;;;;;;29.77;36.45;98888.56;4804511;29;20533;-80
2022/06/03 03:42:21;;;;;;;8.13;3.60;;;;;;;30.15;36.11;98901.69;4789542;29;20035;-81
2022/06/03 03:44:58;;;;;;;14.90;3.40;;;;;;;30.61;35.01;98897.13;4877046;29;20044;-81
2022/06/03 03:47:49;;;;;;;10.50;5.88;;;;;;;31.06;34.64;98896.25;4896723;29;20041;-82
2022/06/03 03:50:40;;;;;;;8.23;3.45;;;;;;;31.55;34.40;98898.28;4896154;29;20040;-81
2022/06/03 03:53:11;;;;;;;10.93;3.13;;;;;;;32.03;33.11;98907.47;4896177;29;20457;-81
2022/06/03 03:55:46;;;;;;;9.18;3.22;;;;;;;32.56;32.27;98906.91;4896155;29;20040;-81
2022/06/03 03:58:30;;;;;;;15.55;3.30;;;;;;;32.98;32.00;98911.59;4896465;29;20492;-81
2022/06/03 04:01:07;;;;;;;10.30;3.10;;;;;;;33.30;31.43;98908.03;4895860;29;20116;-81
2022/06/03 04:03:38;;;;;;;6.82;2.90;;;;;;;33.72;31.05;98909.88;4895977;29;20037;-81
2022/06/03 04:06:28;;;;;;;12.52;2.80;;;;;;;34.07;30.25;98911.88;4958738;28;20047;-81
2022/06/03 04:09:05;;;;;;;5.88;2.75;;;;;;;34.60;29.77;98921.72;4972228;28;20031;-82
2022/06/03 04:11:52;;;;;;;5.97;2.83;;;;;;;35.00;28.87;98917.41;4975459;28;20133;-82
2022/06/03 04:14:36;;;;;;;;;;;;;;;35.48;27.98;98925.97;5013811;28;20053;-81
2022/06/03 04:17:11;;;;;;;5.05;2.67;;;;;;;35.89;28.03;98925.03;5012673;28;19914;-82
2022/06/03 04:19:55;;;;;;;11.00;3.00;;;;;;;36.24;27.69;98920.47;5013268;28;20109;-82
2022/06/03 04:22:26;;;;;;;5.68;2.90;;;;;;;36.42;27.41;98923.63;5013221;28;20034;-82
2022/06/03 04:25:27;;;;;;;7.22;2.78;;;;;;;36.81;27.19;98926.34;5013062;28;20061;-85
2022/06/03 04:28:01;;;;;;;9.98;2.80;;;;;;;37.19;27.39;98925.72;4939540;29;20079;-76
2022/06/03 04:31:00;;;;;;;14.85;3.25;;;;;;;37.56;25.87;98925.06;4917719;29;20537;-74
2022/06/03 04:33:55;;;;;;;17.38;2.80;;;;;;;38.35;24.70;98927.28;4933430;29;20175;-74
2022/06/03 04:36:57;;;;;;;10.70;2.33;;;;;;;38.96;23.97;98932.03;4917551;29;20459;-73
2022/06/03 04:39:47;;;;;;;15.80;3.05;;;;;;;39.71;22.97;98941.84;4933271;29;20123;-75
2022/06/03 04:42:49;;;;;;;15.13;2.60;;;;;;;40.45;22.08;98927.09;4933060;29;20582;-76
2022/06/03 04:45:36;;;;;;;18.10;2.50;;;;;;;41.07;20.99;98931.03;4933575;29;20043;-76
2022/06/03 04:48:25;;;;;;;11.25;2.28;;;;;;;41.43;20.71;98930.06;4933160;29;20044;-75
2022/06/03 04:51:28;;;;;;;14.20;2.25;;;;;;;42.12;19.91;98925.84;4886944;29;20039;-76
2022/06/03 04:54:12;;;;;;;9.88;2.50;;;;;;;42.68;19.07;98933.44;4932860;29;20098;-75
2022/06/03 04:56:55;;;;;;;6.85;2.03;;;;;;;43.19;18.50;98931.66;4932954;29;20415;-75
2022/06/03 04:59:39;;;;;;;6.70;2.47;;;;;;;43.61;18.50;98937.31;4933003;29;20051;-76
2022/06/03 05:02:32;;;;;;;9.05;2.40;;;;;;;44.20;17.84;98932.88;4932967;29;20040;-75
2022/06/03 05:05:31;;;;;;;6.85;2.25;;;;;;;44.93;17.00;98932.34;4997106;28;20069;-74
2022/06/03 05:08:11;;;;;;;8.05;2.25;;;;;;;45.48;16.90;98930.25;5012587;28;20021;-76
2022/06/03 05:11:05;;;;;;;8.43;2.13;;;;;;;46.01;16.56;98933.00;5010706;28;20074;-75
2022/06/03 05:14:02;;;;;;;6.57;2.17;;;;;;;46.52;15.63;98928.94;5011992;28;20026;-76
2022/06/03 05:17:05;;;;;;;7.72;1.95;;;;;;;46.98;15.87;98937.66;5011323;28;20034;-76
2022/06/03 05:19:30;;;;;;;5.40;1.80;;;;;;;47.45;14.99;98936.84;5010970;28;20029;-74
2022/06/03 05:22:17;;;;;;;10.87;2.13;;;;;;;47.78;15.17;98932.88;5012195;28;20029;-74
2022/06/03 05:24:45;;;;;;;5.07;2.15;;;;;;;48.11;14.78;98939.09;5012388;28;20057;-73
2022/06/03 05:27:23;;;;;;;13.32;2.00;;;;;;;48.26;14.56;98940.19;5012335;28;20053;-70
2022/06/03 05:30:03;;;;;;;5.53;1.75;;;;;;;48.62;14.18;98938.91;5013990;28;20054;-74
2022/06/03 05:32:47;;;;;;;5.50;1.73;;;;;;;48.93;14.34;98944.59;4995862;28;20038;-75
2022/06/03 05:35:38;;;;;;;5.28;1.80;;;;;;;49.12;14.00;98929.88;5016201;28;20029;-74
2022/06/03 05:38:07;;;;;;;8.18;2.38;;;;;;;49.43;13.76;98920.47;5000291;28;20129;-74
2022/06/03 05:41:02;;;;;;;6.95;1.90;;;;;;;49.59;13.25;98912.00;5015847;28;20124;-74
2022/06/03 05:43:38;;;;;;;6.40;2.13;;;;;;;49.74;13.03;98924.91;5009836;28;20053;-74
2022/06/03 05:46:04;;;;;;;;;;;;;;;49.70;13.08;98915.72;5015406;28;20025;-74
2022/06/03 05:49:03;;;;;;;6.93;1.70;;;;;;;49.89;13.22;98922.34;5014556;28;19909;-74
2022/06/03 05:51:28;;;;;;;4.72;1.60;;;;;;;50.00;13.19;98919.69;5015050;28;20041;-74
2022/06/03 05:54:15;;;;;;;3.90;1.73;;;;;;;49.99;12.96;98918.88;5015482;28;20022;-74
2022/06/03 05:56:46;;;;;;;6.35;1.67;;;;;;;50.06;13.05;98923.72;5014597;28;20022;-74
2022/06/03 05:59:18;;;;;;;4.13;1.80;;;;;;;50.11;12.73;98920.63;5015687;28;20068;-74
2022/06/03 06:01:58;;;;;;;8.07;1.90;;;;;;;50.19;12.69;98921.50;4998240;28;20045;-75
2022/06/03 06:04:42;;;;;;;4.93;1.75;;;;;;;50.12;12.98;98916.66;5015829;28;20026;-76
2022/06/03 06:07:17;;;;;;;6.35;1.50;;;;;;;50.22;12.52;98918.78;5014156;28;20065;-75
2022/06/03 06:10:02;;;;;;;6.63;1.80;;;;;;;50.21;12.92;98919.13;4999010;28;20034;-75
2022/06/03 06:12:43;;;;;;;7.28;1.92;;;;;;;50.20;12.70;98915.56;5015519;28;20080;-75
2022/06/03 06:15:17;;;;;;;4.20;1.70;;;;;;;50.26;12.94;98921.59;5015141;28;20105;-76
2022/06/03 06:17:45;;;;;;;9.13;2.33;;;;;;;50.22;12.88;98916.00;5015248;28;20095;-76
2022/06/03 06:20:39;;;;;;;3.92;2.08;;;;;;;50.18;13.09;98917.91;5015125;28;20037;-76
2022/06/03 06:23:27;;;;;;;10.18;2.50;;;;;;;50.19;13.00;98922.28;5015081;28;20485;-76
2022/06/03 06:26:09;;;;;;;4.80;1.90;;;;;;;50.03;13.09;98913.38;5014180;28;20080;-76
2022/06/03 06:29:03;;;;;;;4.75;2.00;;;;;;;50.01;12.69;98922.09;5013936;28;20057;-76
2022/06/03 06:32:09;;;;;;;4.97;2.13;;;;;;;49.89;13.07;98919.56;5013815;28;20065;-75
2022/06/03 06:34:56;;;;;;;6.88;2.25;;;;;;;49.76;13.07;98924.53;4997429;28;20022;-74
2022/06/03 06:37:34;;;;;;;7.47;2.30;;;;;;;49.69;13.23;98921.66;5015219;28;20493;-74
2022/06/03 06:40:09;;;;;;;5.38;1.98;;;;;;;49.61;13.15;98926.28;5013414;28;20038;-75
2022/06/03 06:42:52;;;;;;;6.43;2.10;;;;;;;49.50;13.37;98925.34;5015059;28;20036;-75
2022/06/03 06:45:30;;;;;;;5.18;2.05;;;;;;;49.39;12.98;98922.38;5014852;28;20505;-75
2022/06/03 06:47:56;;;;;;;5.13;2.30;;;;;;;49.33;13.28;98927.47;5014005;28;20034;-74
2022/06/03 06:50:46;;;;;;;4.50;2.20;;;;;;;49.16;13.16;98914.94;5014872;28;20543;-76
2022/06/03 06:53:14;;;;;;;5.50;2.25;;;;;;;49.04;13.10;98915.91;4998775;28;20049;-73
2022/06/03 06:56:01;;;;;;;4.15;2.15;;;;;;;48.97;13.79;98923.31;4997400;28;20034;-75
2022/06/03 06:58:45;;;;;;;7.53;2.17;;;;;;;48.86;13.88;98932.22;5014837;28;20022;-75
2022/06/03 07:01:13;;;;;;;7.05;2.22;;;;;;;48.75;13.59;98924.91;5014643;28;20033;-75
2022/06/03 07:03:48;;;;;;;7.78;2.55;;;;;;;48.59;13.79;98928.56;4981032;28;20112;-75
2022/06/03 07:06:14;;;;;;;6.63;2.15;;;;;;;48.51;13.87;98929.63;5016623;28;20033;-75
2022/06/03 07:08:48;;;;;;;5.45;2.20;;;;;;;48.45;14.00;98923.56;5013274;28;20363;-75
2022/06/03 07:11:30;;;;;;;4.97;2.10;;;;;;;48.30;14.30;98927.19;5013306;28;20109;-75
2022/06/03 07:14:07;;;;;;;8.48;2.00;;;;;;;48.18;14.09;98933.72;4981351;28;20026;-75
2022/06/03 07:19:57;;;;;;;8.20;2.13;;;;;;;47.88;14.45;98931.47;5014433;28;20350;-75
2022/06/03 07:22:28;;;;;;;5.97;1.80;;;;;;;47.82;14.59;98928.19;5014054;28;20121;-75
2022/06/03 07:25:18;;;;;;;5.90;2.00;;;;;;;47.68;14.47;98929.88;4996812;28;20026;-75
2022/06/03 07:27:53;;;;;;;5.60;1.92;;;;;;;47.59;14.48;98938.34;4980948;28;20076;-74
2022/06/03 07:30:30;;;;;;;6.68;1.95;;;;;;;47.41;14.33;98933.19;5013180;28;20030;-74
2022/06/03 07:32:57;;;;;;;7.32;1.98;;;;;;;47.29;14.50;98934.09;5012852;28;20095;-72
2022/06/03 07:35:26;;;;;;;8.50;1.90;;;;;;;47.11;14.82;98930.06;4996369;28;20548;-71
2022/06/03 07:38:02;;;;;;;4.47;1.80;;;;;;;46.94;14.75;98928.50;4980034;28;20579;-71
2022/06/03 07:40:42;;;;;;;5.07;1.73;;;;;;;46.74;15.07;98930.31;4997062;28;20037;-72
2022/06/03 07:43:18;;;;;;;5.10;1.90;;;;;;;46.56;14.71;98925.13;4980797;28;20045;-71
2022/06/03 07:46:00;;;;;;;8.85;1.95;;;;;;;46.33;15.44;98924.06;4997333;28;20503;-75
2022/06/03 07:48:26;;;;;;;5.03;1.90;;;;;;;46.23;15.74;98925.38;5012744;28;20037;-74
2022/06/03 07:50:59;;;;;;;5.53;1.92;;;;;;;46.08;15.42;98920.59;5011727;28;20022;-73
2022/06/03 07:53:40;;;;;;;5.32;2.08;;;;;;;45.97;15.38;98923.81;4996005;28;20095;-74
2022/06/03 07:56:06;;;;;;;4.00;1.80;;;;;;;45.93;15.97;98924.88;4995904;28;20088;-75
2022/06/03 07:58:32;;;;;;;5.40;1.70;;;;;;;45.77;15.68;98916.53;4995928;28;20038;-74
2022/06/03 08:00:59;;;;;;;7.57;2.20;;;;;;;45.65;15.62;98912.63;4995394;28;20038;-74
2022/06/03 08:03:26;;;;;;;6.13;1.95;;;;;;;45.55;16.15;98920.56;5012194;28;20029;-75
2022/06/03 08:05:57;;;;;;;8.38;2.38;;;;;;;45.42;16.11;98920.59;4979862;28;20127;-75
2022/06/03 08:11:17;;;;;;;4.05;1.70;;;;;;;45.28;16.10;98920.13;4998327;28;20103;-71
2022/06/03 08:13:42;;;;;;;4.78;1.90;;;;;;;45.19;16.60;98922.19;5013445;28;20026;-71
2022/06/03 08:16:35;;;;;;;5.73;1.83;;;;;;;45.08;16.30;98921.81;5013137;28;20030;-73
2022/06/03 08:19:17;;;;;;;4.70;1.90;;;;;;;45.02;16.50;98917.69;5011750;28;20101;-72
2022/06/03 08:21:59;;;;;;;8.32;1.85;;;;;;;44.93;16.86;98924.09;5012224;28;20065;-72
2022/06/03 08:24:33;;;;;;;6.40;1.88;;;;;;;44.80;16.88;98919.69;4995585;28;20118;-75
2022/06/03 08:27:02;;;;;;;4.97;1.77;;;;;;;44.71;16.91;98916.22;4995368;28;20034;-74
2022/06/03 08:29:39;;;;;;;6.15;2.00;;;;;;;44.58;17.18;98921.69;4979374;28;20030;-73
2022/06/03 08:32:11;;;;;;;4.28;1.90;;;;;;;44.47;17.23;98920.47;4981030;28;20440;-73
2022/06/03 08:34:43;;;;;;;5.68;2.00;;;;;;;44.36;17.42;98925.63;4995898;28;20025;-75
2022/06/03 08:37:09;;;;;;;7.95;1.80;;;;;;;44.29;17.26;98917.13;4978658;28;20045;-74
2022/06/03 08:39:34;;;;;;;5.32;1.67;;;;;;;44.20;17.45;98914.44;4995405;28;20061;-74
2022/06/03 08:42:03;;;;;;;4.47;1.80;;;;;;;44.17;17.63;98919.78;4995075;28;20462;-74
2022/06/03 08:44:38;;;;;;;5.28;1.55;;;;;;;44.04;17.55;98919.72;5012670;28;20026;-74
2022/06/03 08:47:12;;;;;;;5.10;1.70;;;;;;;43.91;17.71;98918.06;5011407;28;20029;-74
2022/06/03 08:50:05;;;;;;;5.43;1.70;;;;;;;43.63;17.87;98917.72;4995135;28;20034;-74
2022/06/03 08:53:14;;;;;;;4.82;1.83;;;;;;;43.53;18.11;98911.47;4979774;28;20036;-74
2022/06/03 08:55:53;;;;;;;4.28;1.70;;;;;;;43.40;17.96;98907.03;4932347;29;20491;-75
2022/06/03 08:58:27;;;;;;;4.60;1.70;;;;;;;43.34;18.24;98908.34;4901253;29;20567;-75
2022/06/03 09:00:55;;;;;;;3.90;1.77;;;;;;;43.12;18.22;98903.94;4901151;29;20043;-75
2022/06/03 09:03:22;;;;;;;5.45;2.05;;;;;;;42.96;18.45;98912.66;4932953;29;20040;-75
2022/06/03 09:05:56;;;;;;;3.20;1.80;;;;;;;42.89;18.13;98908.81;4885834;29;20063;-75
2022/06/03 09:08:55;;;;;;;6.38;1.90;;;;;;;42.71;18.73;98922.59;4916582;29;20039;-75
2022/06/03 09:11:33;;;;;;;4.50;1.88;;;;;;;42.48;18.57;98917.31;4827256;29;20045;-75
2022/06/03 09:14:03;;;;;;;7.90;1.85;;;;;;;42.41;18.84;98913.44;4842573;29;20452;-74
2022/06/03 09:16:29;;;;;;;7.35;2.25;;;;;;;42.36;18.75;98913.59;4827428;29;20036;-74
2022/06/03 09:19:05;;;;;;;10.13;1.80;;;;;;;42.27;18.79;98911.69;4842488;29;20476;-74
2022/06/03 09:21:31;;;;;;;;;;;;;;;42.19;19.25;98909.72;4813610;29;20041;-74
2022/06/03 09:24:12;;;;;;;7.57;2.30;;;;;;;42.08;19.31;98919.38;4857595;29;19916;-73
2022/06/03 09:26:39;;;;;;;5.00;2.10;;;;;;;41.93;19.04;98916.00;4857492;29;20041;-74
2022/06/03 09:29:06;;;;;;;4.88;2.00;;;;;;;41.81;19.11;98924.03;4826881;29;20066;-74
2022/06/03 09:31:32;;;;;;;5.93;1.75;;;;;;;41.66;19.40;98919.81;4842288;29;20061;-74
2022/06/03 09:33:57;;;;;;;4.63;1.70;;;;;;;41.65;19.30;98926.41;4935564;29;20054;-74
2022/06/03 09:36:23;;;;;;;5.05;2.00;;;;;;;41.56;19.62;98929.13;4920140;29;20039;-74
2022/06/03 09:39:00;;;;;;;3.97;1.80;;;;;;;41.43;19.73;98930.06;4935459;29;20043;-75
2022/06/03 09:41:28;;;;;;;4.80;1.95;;;;;;;41.10;20.31;98933.13;4920794;29;20039;-75
2022/06/03 09:43:53;;;;;;;11.27;2.03;;;;;;;41.13;20.33;98937.97;4919411;29;20479;-75
2022/06/03 09:46:19;;;;;;;7.72;2.08;;;;;;;41.14;20.49;98936.06;4936902;28;20038;-75
2022/06/03 09:48:44;;;;;;;4.10;1.83;;;;;;;41.02;20.13;98945.66;4978194;28;20034;-73
2022/06/03 09:51:19;;;;;;;7.90;2.10;;;;;;;40.94;20.14;98951.09;4978206;28;20051;-74
2022/06/03 09:53:45;;;;;;;4.03;1.70;;;;;;;40.82;19.99;98952.44;5010608;28;20489;-74
2022/06/03 09:56:26;;;;;;;5.38;2.08;;;;;;;40.66;20.37;98951.19;4977865;28;20380;-73
2022/06/03 09:58:54;;;;;;;7.32;2.13;;;;;;;40.50;20.78;98948.88;4994725;28;20112;-74
2022/06/03 10:01:20;;;;;;;6.47;1.90;;;;;;;40.42;20.69;98946.88;4978348;28;20117;-72
2022/06/03 10:03:45;;;;;;;7.40;1.98;;;;;;;40.26;20.97;98940.91;5010599;28;20034;-73
2022/06/03 10:06:42;;;;;;;4.47;2.00;;;;;;;40.15;20.71;98962.22;4994167;28;20040;-73
2022/06/03 10:14:29;;;;;;;6.70;2.20;;;;;;;39.75;21.32;98950.22;4919432;29;20550;-73
2022/06/03 10:16:55;;;;;;;5.00;2.10;;;;;;;39.67;21.65;98956.41;4917769;29;20043;-74
2022/06/03 10:19:21;;;;;;;6.07;2.10;;;;;;;39.61;21.94;98961.97;4919981;29;20071;-73
2022/06/03 10:21:53;;;;;;;4.70;2.10;;;;;;;39.50;22.03;98968.72;4919561;29;20032;-74
2022/06/03 10:24:21;;;;;;;7.38;2.17;;;;;;;39.47;21.49;98965.78;4900164;29;20439;-73
2022/06/03 10:26:51;;;;;;;6.10;1.77;;;;;;;39.40;21.76;98952.53;4900808;29;20070;-75
2022/06/03 10:29:21;;;;;;;8.43;2.00;;;;;;;39.29;22.10;98954.66;4915926;29;20064;-75
2022/06/03 10:31:55;;;;;;;4.38;1.88;;;;;;;39.20;22.07;98959.19;4900837;29;20032;-75
2022/06/03 10:34:25;;;;;;;8.07;2.08;;;;;;;38.98;22.02;98949.72;4900826;29;20044;-75
2022/06/03 10:36:52;;;;;;;3.78;1.92;;;;;;;38.88;22.47;98947.19;4900618;29;20042;-74
2022/06/03 10:39:18;;;;;;;3.83;2.00;;;;;;;38.85;22.15;98937.66;4916637;29;20104;-75
2022/06/03 10:41:46;;;;;;;3.58;1.77;;;;;;;38.75;22.37;98948.78;4916334;29;20103;-75
2022/06/03 10:44:16;;;;;;;6.50;2.03;;;;;;;38.68;22.40;98951.88;4900359;29;20035;-75
2022/06/03 10:47:18;;;;;;;7.00;2.00;;;;;;;38.55;22.83;98938.97;4900685;29;20468;-75
2022/06/03 10:49:58;;;;;;;4.70;1.88;;;;;;;38.46;22.58;98946.19;4978919;28;20496;-74
2022/06/03 11:01:26;;;;;;;5.93;2.10;;;;;;;38.11;22.68;98940.16;4903152;29;20559;-74
2022/06/03 11:03:52;;;;;;;5.70;2.42;;;;;;;38.01;22.57;98938.38;4916234;29;20377;-74
2022/06/03 11:06:22;;;;;;;7.30;1.98;;;;;;;37.92;22.80;98943.66;4900362;29;20040;-74
2022/06/03 11:08:59;;;;;;;5.10;1.90;;;;;;;37.84;23.07;98933.44;4900742;29;20079;-74
2022/06/03 11:12:04;;;;;;;4.50;1.80;;;;;;;37.79;23.41;98936.22;4885285;29;20495;-74
2022/06/03 11:14:38;;;;;;;3.75;1.90;;;;;;;37.65;23.60;98936.91;4841836;29;20046;-74
2022/06/03 11:17:30;;;;;;;3.63;1.85;;;;;;;37.62;23.28;98937.50;4841701;29;20050;-74
2022/06/03 11:19:56;;;;;;;4.72;2.38;;;;;;;37.52;23.47;98926.72;4836313;29;20532;-74
2022/06/03 11:22:32;;;;;;;3.28;1.75;;;;;;;37.49;23.43;98940.91;4841182;29;20140;-74
2022/06/03 11:25:13;;;;;;;10.43;2.00;;;;;;;37.43;23.32;98934.72;4841210;29;20436;-74
2022/06/03 11:27:44;;;;;;;6.82;2.22;;;;;;;37.39;23.40;98939.13;4840256;29;20054;-74
2022/06/03 11:30:16;;;;;;;5.70;2.20;;;;;;;37.28;23.76;98915.84;4841189;29;20060;-73
2022/06/03 11:32:42;;;;;;;6.15;2.15;;;;;;;37.28;24.18;98919.38;4840828;29;20050;-73
2022/06/03 11:35:12;;;;;;;4.03;2.03;;;;;;;37.28;23.72;98921.28;4893153;29;20047;-73
2022/06/03 11:37:39;;;;;;;5.88;2.30;;;;;;;37.22;23.54;98915.06;4900085;29;20052;-73
2022/06/03 11:40:10;;;;;;;7.00;2.28;;;;;;;37.13;23.62;98911.34;4884373;29;20488;-73
2022/06/03 11:42:41;;;;;;;6.18;1.92;;;;;;;37.12;23.74;98920.63;4884464;29;20503;-73
2022/06/03 11:45:16;;;;;;;11.40;2.15;;;;;;;37.06;24.05;98917.13;4899291;29;20042;-73
2022/06/03 11:47:53;;;;;;;3.40;1.80;;;;;;;37.02;23.71;98904.38;4900077;29;20139;-73
2022/06/03 11:50:21;;;;;;;4.55;1.95;;;;;;;37.00;23.83;98914.75;4906511;28;20125;-73
2022/06/03 11:52:47;;;;;;;4.80;2.10;;;;;;;36.90;23.46;98907.50;4993178;28;20041;-73
2022/06/03 11:55:12;;;;;;;6.38;2.53;;;;;;;36.84;23.62;98905.94;4976992;28;20030;-73
2022/06/03 11:57:39;;;;;;;6.93;2.05;;;;;;;36.77;23.56;98903.53;4960465;28;20073;-73
2022/06/03 12:00:06;;;;;;;5.15;2.08;;;;;;;36.72;24.12;98909.81;4976674;28;20417;-73
2022/06/03 12:02:51;;;;;;;6.38;2.10;;;;;;;36.63;24.27;98903.34;4976921;28;20473;-73
2022/06/03 12:05:21;;;;;;;5.18;2.22;;;;;;;36.60;24.05;98903.13;4977856;28;20030;-73
2022/06/03 12:08:15;;;;;;;5.15;1.98;;;;;;;36.59;24.16;98902.28;4960301;28;20128;-73
2022/06/03 12:10:50;;;;;;;5.85;2.20;;;;;;;36.57;24.18;98891.69;4993091;28;20029;-74
2022/06/03 12:13:17;;;;;;;7.47;2.20;;;;;;;36.50;23.94;98893.97;4994031;28;20042;-73
2022/06/03 12:15:58;;;;;;;5.00;2.00;;;;;;;36.43;24.22;98898.09;4976779;28;20485;-74
2022/06/03 12:18:33;;;;;;;4.65;2.22;;;;;;;36.44;24.24;98897.00;4993744;28;20084;-74
2022/06/03 12:21:06;;;;;;;9.05;2.20;;;;;;;36.40;23.86;98900.28;4993951;28;20558;-73
2022/06/03 12:23:38;;;;;;;5.95;2.05;;;;;;;36.38;23.67;98891.59;4977103;28;20088;-73
2022/06/03 12:26:24;;;;;;;7.65;2.28;;;;;;;36.37;23.86;98891.88;4993471;28;20027;-73
2022/06/03 12:28:51;;;;;;;4.97;2.57;;;;;;;36.34;23.71;98895.97;4992093;28;20061;-73
2022/06/03 12:31:19;;;;;;;9.80;2.40;;;;;;;36.35;23.78;98891.34;4959807;28;20277;-73
2022/06/03 12:34:11;;;;;;;5.40;2.40;;;;;;;36.33;23.60;98880.75;4993595;28;20113;-73
2022/06/03 12:36:52;;;;;;;8.65;2.70;;;;;;;36.38;23.48;98886.16;4977722;28;20113;-73
2022/06/03 12:39:27;;;;;;;7.57;2.90;;;;;;;36.35;23.71;98885.91;4992075;28;20034;-73
2022/06/03 12:42:14;;;;;;;9.93;2.70;;;;;;;36.35;23.74;98892.16;4993145;28;20033;-73
2022/06/03 12:44:46;;;;;;;7.10;2.80;;;;;;;36.36;23.94;98893.78;4989117;28;20031;-73
2022/06/03 12:47:18;;;;;;;5.97;2.35;;;;;;;36.38;23.69;98888.06;4991944;28;20414;-73
2022/06/03 12:49:43;;;;;;;3.95;2.40;;;;;;;36.38;23.33;98888.88;4991808;28;20030;-73